createdAt,value
2023-05-17T00:03:23.186Z,100527.66
2023-05-17T00:08:24.761Z,100532.75
2023-05-17T00:13:26.370Z,100518.66
2023-05-17T00:18:28.087Z,100525.50
2023-05-17T00:23:29.746Z,100531.00
2023-05-17T00:28:31.380Z,100524.03
2023-05-17T00:33:33.060Z,100528.34
2023-05-17T00:38:34.763Z,100535.69
2023-05-17T00:43:36.514Z,100529.94
2023-05-17T00:48:38.316Z,100529.66
2023-05-17T00:53:40.299Z,100526.84
2023-05-17T00:58:41.957Z,100533.63
2023-05-17T01:03:43.848Z,100542.88
2023-05-17T01:08:47.996Z,100539.78
2023-05-17T01:13:55.989Z,100548.50
2023-05-17T01:19:30.253Z,100546.00
2023-05-17T01:24:51.573Z,100546.53
2023-05-17T01:29:55.166Z,100551.91
2023-05-17T01:34:56.787Z,100556.09
2023-05-17T01:39:58.448Z,100560.06
2023-05-17T01:45:06.627Z,100561.19
2023-05-17T01:50:09.376Z,100568.75
2023-05-17T01:55:18.805Z,100570.19
2023-05-17T02:00:20.936Z,100574.66
2023-05-17T02:05:22.580Z,100578.34
2023-05-17T02:10:24.312Z,100578.34
2023-05-17T02:15:26.122Z,100573.00
2023-05-17T02:20:27.813Z,100575.22
2023-05-17T02:25:29.753Z,100566.47
2023-05-17T02:30:31.873Z,100572.41
2023-05-17T02:35:33.728Z,100583.66
2023-05-17T02:40:35.411Z,100595.59
2023-05-17T02:45:37.833Z,100603.31
2023-05-17T02:50:40.342Z,100606.66
2023-05-17T02:55:41.970Z,100596.69
2023-05-17T03:00:46.500Z,100620.56
2023-05-17T03:05:49.721Z,100629.94
2023-05-17T03:10:52.315Z,100624.31
2023-05-17T03:15:54.371Z,100619.41
2023-05-17T03:20:56.714Z,100635.88
2023-05-17T03:25:58.588Z,100640.66
2023-05-17T03:31:02.896Z,100637.22
2023-05-17T03:36:07.747Z,100631.56
2023-05-17T03:41:10.596Z,100638.03
2023-05-17T03:46:12.954Z,100646.81
2023-05-17T03:51:16.098Z,100657.25
2023-05-17T03:56:18.836Z,100660.09
2023-05-17T04:01:20.770Z,100661.78
2023-05-17T04:06:23.369Z,100674.19
2023-05-17T04:11:27.304Z,100672.69
2023-05-17T04:16:29.927Z,100675.63
2023-05-17T04:21:31.729Z,100678.28
2023-05-17T04:26:33.445Z,100680.31
2023-05-17T04:31:35.192Z,100677.69
2023-05-17T04:36:37.101Z,100669.09
2023-05-17T04:41:39.696Z,100673.31
2023-05-17T04:46:45.873Z,100681.97
2023-05-17T04:51:48.534Z,100699.78
2023-05-17T04:56:50.725Z,100707.13
2023-05-17T05:02:06.792Z,100725.00
2023-05-17T05:07:09.383Z,100717.28
2023-05-17T05:12:11.393Z,100709.84
2023-05-17T05:17:17.653Z,100698.50
2023-05-17T05:22:21.042Z,100698.19
2023-05-17T05:27:22.741Z,100698.59
2023-05-17T05:32:25.865Z,100718.19
2023-05-17T05:37:28.417Z,100725.34
2023-05-17T05:42:31.111Z,100726.22
2023-05-17T05:47:33.045Z,100729.19
2023-05-17T05:52:34.864Z,100738.66
2023-05-17T05:57:36.716Z,100747.88
2023-05-17T06:02:38.692Z,100749.88
2023-05-17T06:07:40.389Z,100762.16
2023-05-17T06:12:42.024Z,100763.59
2023-05-17T06:17:43.830Z,100766.06
2023-05-17T06:22:45.522Z,100770.06
2023-05-17T06:27:47.195Z,100773.41
2023-05-17T06:32:48.884Z,100779.56
2023-05-17T06:37:50.798Z,100774.41
2023-05-17T06:42:52.562Z,100777.88
2023-05-17T06:47:54.354Z,100784.41
2023-05-17T06:52:56.018Z,100790.81
2023-05-17T06:57:57.713Z,100791.06
2023-05-17T07:02:59.429Z,100793.81
2023-05-17T07:08:01.514Z,100785.50
2023-05-17T07:13:03.201Z,100792.19
2023-05-17T07:18:05.030Z,100793.13
2023-05-17T07:23:06.961Z,100787.53
2023-05-17T07:28:08.595Z,100784.41
2023-05-17T07:33:10.315Z,100790.84
2023-05-17T07:38:12.082Z,100785.94
2023-05-17T07:43:13.706Z,100794.31
2023-05-17T07:48:15.595Z,100794.56
2023-05-17T07:53:17.403Z,100787.06
2023-05-17T07:58:19.125Z,100804.34
2023-05-17T08:03:21.509Z,100797.56
2023-05-17T08:08:23.223Z,100803.84
2023-05-17T08:13:24.842Z,100805.22
2023-05-17T08:18:26.725Z,100809.38
2023-05-17T08:23:28.449Z,100813.16
2023-05-17T08:28:30.083Z,100797.53
2023-05-17T08:33:31.885Z,100800.09
2023-05-17T08:38:34.485Z,100803.94
2023-05-17T08:43:36.305Z,100802.03
2023-05-17T08:48:41.983Z,100798.47
2023-05-17T08:53:47.081Z,100798.69
2023-05-17T08:58:57.138Z,100805.53
2023-05-17T09:04:00.476Z,100811.47
2023-05-17T09:09:02.171Z,100808.44
2023-05-17T09:14:06.272Z,100808.06
2023-05-17T09:19:09.633Z,100808.69
2023-05-17T09:24:11.290Z,100803.78
2023-05-17T09:29:16.553Z,100816.63
2023-05-17T09:34:19.189Z,100820.13
2023-05-17T09:39:20.965Z,100831.97
2023-05-17T09:44:23.449Z,100834.31
2023-05-17T09:49:27.387Z,100844.13
2023-05-17T09:54:32.187Z,100838.88
2023-05-17T09:59:33.969Z,100832.84
2023-05-17T10:04:37.615Z,100826.81
2023-05-17T10:09:39.540Z,100837.59
2023-05-17T10:14:41.186Z,100843.22
2023-05-17T10:19:43.592Z,100841.13
2023-05-17T10:24:46.576Z,100851.19
2023-05-17T10:29:50.611Z,100838.47
2023-05-17T10:35:05.936Z,100837.63
2023-05-17T10:40:15.148Z,100842.72
2023-05-17T10:45:16.870Z,100845.59
2023-05-17T10:50:26.973Z,100841.56
2023-05-17T10:55:41.250Z,100834.19
2023-05-17T11:00:48.199Z,100835.38
2023-05-17T11:06:22.028Z,100833.63
2023-05-17T11:11:25.483Z,100833.16
2023-05-17T11:16:37.957Z,100819.38
2023-05-17T11:21:49.154Z,100823.44
2023-05-17T11:26:51.398Z,100832.06
2023-05-17T11:31:53.296Z,100817.16
2023-05-17T11:36:55.784Z,100809.09
2023-05-17T11:41:57.788Z,100805.56
2023-05-17T11:47:09.535Z,100799.16
2023-05-17T11:52:11.523Z,100811.53
2023-05-17T11:57:16.701Z,100815.94
2023-05-17T12:02:32.540Z,100810.09
2023-05-17T12:07:34.483Z,100804.81
2023-05-17T12:12:36.134Z,100800.69
2023-05-17T12:17:42.804Z,100804.47
2023-05-17T12:22:57.179Z,100804.91
2023-05-17T12:28:18.574Z,100815.16
2023-05-17T12:33:20.753Z,100812.13
2023-05-17T12:38:22.653Z,100830.59
2023-05-17T12:43:24.811Z,100827.22
2023-05-17T12:48:27.226Z,100845.59
2023-05-17T12:53:36.336Z,100827.03
2023-05-17T12:58:37.942Z,100827.50
2023-05-17T13:03:40.293Z,100824.69
2023-05-17T13:08:44.089Z,100819.56
2023-05-17T13:13:46.163Z,100820.88
2023-05-17T13:18:52.182Z,100819.72
2023-05-17T13:23:53.950Z,100824.09
2023-05-17T13:28:55.652Z,100836.91
2023-05-17T13:33:57.454Z,100822.38
2023-05-17T13:39:02.244Z,100819.06
2023-05-17T13:44:03.907Z,100834.91
2023-05-17T13:49:07.637Z,100835.41
2023-05-17T13:54:10.496Z,100829.50
2023-05-17T13:59:12.188Z,100825.13
2023-05-17T14:04:13.986Z,100833.53
2023-05-17T14:09:15.810Z,100828.47
2023-05-17T14:14:17.430Z,100842.19
2023-05-17T14:19:19.216Z,100850.44
2023-05-17T14:24:21.130Z,100844.91
2023-05-17T14:29:22.775Z,100849.59
2023-05-17T14:34:24.478Z,100850.19
2023-05-17T14:39:26.263Z,100846.38
2023-05-17T14:44:27.866Z,100852.41
2023-05-17T14:49:29.482Z,100842.25
2023-05-17T14:54:32.857Z,100841.91
2023-05-17T14:59:35.767Z,100853.31
2023-05-17T15:04:37.723Z,100845.25
2023-05-17T15:09:41.472Z,100843.81
2023-05-17T15:14:44.042Z,100841.28
2023-05-17T15:19:45.774Z,100846.69
2023-05-17T15:24:47.550Z,100841.97
2023-05-17T15:29:49.157Z,100838.25
2023-05-17T15:34:51.904Z,100825.44
2023-05-17T15:39:53.574Z,100828.66
2023-05-17T15:44:55.162Z,100827.34
2023-05-17T15:49:58.202Z,100820.09
2023-05-17T15:54:59.872Z,100812.16
2023-05-17T16:00:01.940Z,100809.13
2023-05-17T16:05:04.282Z,100802.53
2023-05-17T16:10:06.706Z,100819.88
2023-05-17T16:15:09.385Z,100826.47
2023-05-17T16:20:12.125Z,100826.13
2023-05-17T16:25:24.435Z,100819.72
2023-05-17T16:30:26.431Z,100831.91
2023-05-17T16:35:28.744Z,100833.53
2023-05-17T16:40:30.715Z,100848.59
2023-05-17T16:45:32.581Z,100843.00
2023-05-17T16:50:34.263Z,100848.72
2023-05-17T16:55:36.338Z,100853.50
2023-05-17T17:00:38.015Z,100877.72
2023-05-17T17:05:39.706Z,100857.84
2023-05-17T17:10:41.348Z,100863.06
2023-05-17T17:15:42.950Z,100882.09
2023-05-17T17:20:45.187Z,100882.75
2023-05-17T17:25:46.813Z,100879.22
2023-05-17T17:30:48.537Z,100890.88
2023-05-17T17:35:50.202Z,100896.78
2023-05-17T17:40:51.914Z,100894.53
2023-05-17T17:45:53.516Z,100909.72
2023-05-17T17:50:55.613Z,100901.25
2023-05-17T17:55:57.229Z,100905.97
2023-05-17T18:00:58.898Z,100909.50
2023-05-17T18:06:00.536Z,100911.50
2023-05-17T18:11:02.524Z,100914.34
2023-05-17T18:16:04.504Z,100915.69
2023-05-17T18:21:07.950Z,100915.84
2023-05-17T18:26:09.667Z,100926.09
2023-05-17T18:31:11.430Z,100933.34
2023-05-17T18:36:13.329Z,100927.22
2023-05-17T18:41:14.986Z,100941.53
2023-05-17T18:46:16.669Z,100949.75
2023-05-17T18:51:18.334Z,100958.22
2023-05-17T18:56:22.846Z,100961.03
2023-05-17T19:01:25.175Z,100963.19
2023-05-17T19:06:29.611Z,100974.66
2023-05-17T19:11:32.447Z,100976.34
2023-05-17T19:16:34.080Z,100973.19
2023-05-17T19:21:35.727Z,100981.88
2023-05-17T19:26:37.403Z,100987.19
2023-05-17T19:31:39.052Z,100989.94
2023-05-17T19:36:40.749Z,100999.19
2023-05-17T19:41:42.390Z,100996.97
2023-05-17T19:46:44.151Z,100997.50
2023-05-17T19:51:46.700Z,101006.72
2023-05-17T19:56:48.360Z,101009.50
2023-05-17T20:01:50.566Z,101023.47
2023-05-17T20:06:52.392Z,101019.19
2023-05-17T20:11:54.126Z,101020.38
2023-05-17T20:16:56.190Z,101022.69
2023-05-17T20:21:57.956Z,101024.13
2023-05-17T20:26:59.646Z,101031.81
2023-05-17T20:32:01.483Z,101037.69
2023-05-17T20:37:03.169Z,101029.38
2023-05-17T20:42:05.320Z,101036.91
2023-05-17T20:47:09.179Z,101044.91
2023-05-17T20:52:11.107Z,101043.84
2023-05-17T20:57:12.769Z,101038.19
2023-05-17T21:02:14.492Z,101048.38
2023-05-17T21:07:17.423Z,101050.34
2023-05-17T21:12:19.048Z,101044.50
2023-05-17T21:17:20.678Z,101051.59
2023-05-17T21:22:22.344Z,101056.28
2023-05-17T21:27:23.981Z,101059.19
2023-05-17T21:32:26.527Z,101060.91
2023-05-17T21:37:28.163Z,101065.75
2023-05-17T21:42:29.802Z,101068.66
2023-05-17T21:47:31.549Z,101071.66
2023-05-17T21:52:33.438Z,101082.38
2023-05-17T21:57:36.533Z,101081.09
2023-05-17T22:02:42.191Z,101094.69
2023-05-17T22:07:44.049Z,101084.94
2023-05-17T22:12:46.720Z,101087.53
2023-05-17T22:17:52.843Z,101079.88
2023-05-17T22:22:55.153Z,101088.41
2023-05-17T22:27:56.772Z,101090.38
2023-05-17T22:32:58.441Z,101091.22
2023-05-17T22:38:00.063Z,101088.28
2023-05-17T22:43:01.740Z,101096.19
2023-05-17T22:48:05.613Z,101095.34
2023-05-17T22:53:07.336Z,101099.28
2023-05-17T22:58:08.976Z,101099.72
2023-05-17T23:03:13.784Z,101099.72
2023-05-17T23:08:15.702Z,101094.63
2023-05-17T23:13:17.845Z,101102.56
2023-05-17T23:18:19.670Z,101102.41
2023-05-17T23:23:23.105Z,101101.13
2023-05-17T23:28:25.495Z,101102.28
2023-05-17T23:33:31.083Z,101108.47
2023-05-17T23:38:32.807Z,101107.22
2023-05-17T23:43:34.740Z,101111.59
2023-05-17T23:48:36.321Z,101110.63
2023-05-17T23:53:38.037Z,101115.56
2023-05-17T23:58:39.691Z,101117.38
